sensor_id;sensor_type;location;lat;lon;timestamp;pressure;altitude;pressure_sealevel;temperature;humidity
17230;BME280;8731;50.364;8.958;2023-04-25T00:00:34;99397.03;;;10.43;92.48
17230;BME280;8731;50.364;8.958;2023-04-25T00:04:56;99390.34;;;10.56;91.79
17230;BME280;8731;50.364;8.958;2023-04-25T00:09:19;99390.03;;;10.41;93.53
17230;BME280;8731;50.364;8.958;2023-04-25T00:13:41;99394.16;;;10.61;91.71
17230;BME280;8731;50.364;8.958;2023-04-25T00:18:05;99400.06;;;10.39;93.48
17230;BME280;8731;50.364;8.958;2023-04-25T00:22:27;99390.41;;;10.35;94.00
17230;BME280;8731;50.364;8.958;2023-04-25T00:26:50;99393.72;;;10.44;92.28
17230;BME280;8731;50.364;8.958;2023-04-25T00:31:12;99392.47;;;10.19;95.05
17230;BME280;8731;50.364;8.958;2023-04-25T00:35:36;99399.81;;;10.36;93.49
17230;BME280;8731;50.364;8.958;2023-04-25T00:39:59;99399.47;;;10.32;94.00
17230;BME280;8731;50.364;8.958;2023-04-25T00:44:22;99392.19;;;10.16;95.49
17230;BME280;8731;50.364;8.958;2023-04-25T00:48:47;99393.72;;;10.14;95.56
17230;BME280;8731;50.364;8.958;2023-04-25T00:53:10;99386.34;;;10.17;95.52
17230;BME280;8731;50.364;8.958;2023-04-25T00:57:33;99384.84;;;10.29;93.59
17230;BME280;8731;50.364;8.958;2023-04-25T01:01:56;99385.47;;;10.27;93.88
17230;BME280;8731;50.364;8.958;2023-04-25T01:06:19;99381.13;;;10.36;93.05
17230;BME280;8731;50.364;8.958;2023-04-25T01:10:44;99387.25;;;10.28;93.93
17230;BME280;8731;50.364;8.958;2023-04-25T01:15:06;99399.84;;;10.26;93.29
17230;BME280;8731;50.364;8.958;2023-04-25T01:19:30;99397.06;;;10.23;93.70
17230;BME280;8731;50.364;8.958;2023-04-25T01:23:54;99396.06;;;10.21;93.43
17230;BME280;8731;50.364;8.958;2023-04-25T01:28:17;99394.78;;;10.26;92.69
17230;BME280;8731;50.364;8.958;2023-04-25T01:32:40;99398.31;;;10.28;92.24
17230;BME280;8731;50.364;8.958;2023-04-25T01:37:03;99398.84;;;10.24;93.20
17230;BME280;8731;50.364;8.958;2023-04-25T01:41:27;99395.41;;;10.24;91.79
17230;BME280;8731;50.364;8.958;2023-04-25T01:45:50;99390.41;;;10.35;91.13
17230;BME280;8731;50.364;8.958;2023-04-25T01:50:13;99389.94;;;10.29;90.88
17230;BME280;8731;50.364;8.958;2023-04-25T01:54:36;99383.72;;;10.26;90.16
17230;BME280;8731;50.364;8.958;2023-04-25T01:59:00;99388.16;;;10.08;91.19
17230;BME280;8731;50.364;8.958;2023-04-25T02:03:41;99392.06;;;10.14;90.44
17230;BME280;8731;50.364;8.958;2023-04-25T02:08:13;99401.41;;;10.24;88.74
17230;BME280;8731;50.364;8.958;2023-04-25T02:12:37;99391.59;;;10.19;88.70
17230;BME280;8731;50.364;8.958;2023-04-25T02:17:15;99395.91;;;10.20;89.70
17230;BME280;8731;50.364;8.958;2023-04-25T02:21:39;99404.44;;;10.20;90.39
17230;BME280;8731;50.364;8.958;2023-04-25T02:26:01;99402.75;;;10.10;90.09
17230;BME280;8731;50.364;8.958;2023-04-25T02:30:24;99398.81;;;10.14;89.56
17230;BME280;8731;50.364;8.958;2023-04-25T02:34:48;99403.91;;;10.14;90.26
17230;BME280;8731;50.364;8.958;2023-04-25T02:39:10;99403.53;;;10.20;89.96
17230;BME280;8731;50.364;8.958;2023-04-25T02:43:33;99395.25;;;10.12;89.96
17230;BME280;8731;50.364;8.958;2023-04-25T02:47:55;99402.66;;;10.09;90.00
17230;BME280;8731;50.364;8.958;2023-04-25T02:52:19;99406.34;;;10.02;90.22
17230;BME280;8731;50.364;8.958;2023-04-25T02:56:49;99403.16;;;10.05;89.15
17230;BME280;8731;50.364;8.958;2023-04-25T03:01:17;99406.22;;;9.91;89.41
17230;BME280;8731;50.364;8.958;2023-04-25T03:05:40;99408.50;;;9.88;87.80
17230;BME280;8731;50.364;8.958;2023-04-25T03:10:05;99409.28;;;9.76;87.05
17230;BME280;8731;50.364;8.958;2023-04-25T03:14:29;99414.09;;;9.83;86.35
17230;BME280;8731;50.364;8.958;2023-04-25T03:18:52;99406.75;;;9.76;86.62
17230;BME280;8731;50.364;8.958;2023-04-25T03:23:14;99413.97;;;9.82;85.63
17230;BME280;8731;50.364;8.958;2023-04-25T03:27:38;99414.59;;;9.49;85.49
17230;BME280;8731;50.364;8.958;2023-04-25T03:32:01;99415.09;;;9.65;84.89
17230;BME280;8731;50.364;8.958;2023-04-25T03:36:24;99420.16;;;9.25;84.33
17230;BME280;8731;50.364;8.958;2023-04-25T03:40:46;99430.81;;;9.31;83.46
17230;BME280;8731;50.364;8.958;2023-04-25T03:45:17;99428.03;;;9.38;82.71
17230;BME280;8731;50.364;8.958;2023-04-25T03:49:41;99437.81;;;9.23;82.14
17230;BME280;8731;50.364;8.958;2023-04-25T03:54:05;99443.47;;;9.20;82.10
17230;BME280;8731;50.364;8.958;2023-04-25T03:58:33;99442.69;;;9.11;81.06
17230;BME280;8731;50.364;8.958;2023-04-25T04:02:57;99449.09;;;8.87;82.79
17230;BME280;8731;50.364;8.958;2023-04-25T04:07:20;99464.41;;;8.79;83.39
17230;BME280;8731;50.364;8.958;2023-04-25T04:11:46;99454.41;;;8.80;83.00
17230;BME280;8731;50.364;8.958;2023-04-25T04:16:09;99466.22;;;8.61;82.55
17230;BME280;8731;50.364;8.958;2023-04-25T04:20:34;99468.34;;;8.56;82.15
17230;BME280;8731;50.364;8.958;2023-04-25T04:24:57;99483.88;;;8.70;81.13
17230;BME280;8731;50.364;8.958;2023-04-25T04:29:46;99484.25;;;8.45;82.13
17230;BME280;8731;50.364;8.958;2023-04-25T04:34:14;99492.63;;;8.44;82.28
17230;BME280;8731;50.364;8.958;2023-04-25T04:38:40;99483.00;;;8.31;81.59
17230;BME280;8731;50.364;8.958;2023-04-25T04:43:13;99495.38;;;8.37;81.67
17230;BME280;8731;50.364;8.958;2023-04-25T04:47:49;99488.56;;;8.46;81.21
17230;BME280;8731;50.364;8.958;2023-04-25T04:52:38;99497.41;;;8.41;81.44
17230;BME280;8731;50.364;8.958;2023-04-25T04:57:32;99499.28;;;8.52;81.76
17230;BME280;8731;50.364;8.958;2023-04-25T05:02:10;99497.41;;;8.41;82.16
17230;BME280;8731;50.364;8.958;2023-04-25T05:06:43;99504.09;;;8.22;83.35
17230;BME280;8731;50.364;8.958;2023-04-25T05:11:18;99508.13;;;8.20;85.03
17230;BME280;8731;50.364;8.958;2023-04-25T05:16:00;99503.72;;;8.36;83.67
17230;BME280;8731;50.364;8.958;2023-04-25T05:20:42;99510.00;;;8.31;84.30
17230;BME280;8731;50.364;8.958;2023-04-25T05:25:15;99505.97;;;8.71;84.05
17230;BME280;8731;50.364;8.958;2023-04-25T05:29:51;99508.59;;;8.81;83.29
17230;BME280;8731;50.364;8.958;2023-04-25T05:34:25;99508.25;;;9.65;79.82
17230;BME280;8731;50.364;8.958;2023-04-25T05:38:51;99506.28;;;10.11;79.13
17230;BME280;8731;50.364;8.958;2023-04-25T05:43:13;99510.34;;;10.60;77.38
17230;BME280;8731;50.364;8.958;2023-04-25T05:47:42;99509.22;;;11.41;74.82
17230;BME280;8731;50.364;8.958;2023-04-25T05:52:12;99513.56;;;11.64;71.68
17230;BME280;8731;50.364;8.958;2023-04-25T05:56:44;99516.47;;;12.24;71.02
17230;BME280;8731;50.364;8.958;2023-04-25T06:01:07;99516.91;;;13.22;66.60
17230;BME280;8731;50.364;8.958;2023-04-25T06:05:30;99516.25;;;13.73;65.77
17230;BME280;8731;50.364;8.958;2023-04-25T06:09:55;99518.44;;;14.30;64.23
17230;BME280;8731;50.364;8.958;2023-04-25T06:14:17;99524.16;;;14.51;60.71
17230;BME280;8731;50.364;8.958;2023-04-25T06:18:43;99537.97;;;13.91;61.69
17230;BME280;8731;50.364;8.958;2023-04-25T06:23:06;99527.16;;;13.95;62.03
17230;BME280;8731;50.364;8.958;2023-04-25T06:27:48;99532.06;;;14.42;61.83
17230;BME280;8731;50.364;8.958;2023-04-25T06:32:11;99526.03;;;14.66;58.79
17230;BME280;8731;50.364;8.958;2023-04-25T06:36:34;99519.69;;;15.54;57.82
17230;BME280;8731;50.364;8.958;2023-04-25T06:41:01;99516.75;;;16.17;57.84
17230;BME280;8731;50.364;8.958;2023-04-25T06:45:29;99505.47;;;15.72;55.75
17230;BME280;8731;50.364;8.958;2023-04-25T06:49:52;99504.41;;;15.69;56.63
17230;BME280;8731;50.364;8.958;2023-04-25T06:54:15;99515.00;;;15.33;56.74
17230;BME280;8731;50.364;8.958;2023-04-25T06:58:48;99506.97;;;16.39;55.03
17230;BME280;8731;50.364;8.958;2023-04-25T07:03:30;99517.72;;;16.76;54.18
17230;BME280;8731;50.364;8.958;2023-04-25T07:07:57;99516.69;;;16.45;54.27
17230;BME280;8731;50.364;8.958;2023-04-25T07:12:21;99544.59;;;14.76;54.14
17230;BME280;8731;50.364;8.958;2023-04-25T07:16:44;99543.88;;;14.65;53.90
17230;BME280;8731;50.364;8.958;2023-04-25T07:21:08;99543.56;;;14.35;55.52
17230;BME280;8731;50.364;8.958;2023-04-25T07:25:34;99534.94;;;14.85;56.19
17230;BME280;8731;50.364;8.958;2023-04-25T07:29:57;99544.84;;;14.29;55.92
17230;BME280;8731;50.364;8.958;2023-04-25T07:34:20;99547.19;;;15.15;55.02
17230;BME280;8731;50.364;8.958;2023-04-25T07:38:44;99559.59;;;14.96;54.04
17230;BME280;8731;50.364;8.958;2023-04-25T07:43:07;99556.16;;;15.22;54.20
17230;BME280;8731;50.364;8.958;2023-04-25T07:47:40;99553.09;;;15.67;54.06
17230;BME280;8731;50.364;8.958;2023-04-25T07:52:03;99564.44;;;15.44;53.35
17230;BME280;8731;50.364;8.958;2023-04-25T07:56:31;99567.97;;;14.93;53.33
17230;BME280;8731;50.364;8.958;2023-04-25T08:00:54;99557.13;;;15.11;53.62
17230;BME280;8731;50.364;8.958;2023-04-25T08:05:28;99570.63;;;15.08;53.90
17230;BME280;8731;50.364;8.958;2023-04-25T08:09:57;99566.91;;;15.69;53.37
17230;BME280;8731;50.364;8.958;2023-04-25T08:14:26;99573.16;;;14.68;52.83
17230;BME280;8731;50.364;8.958;2023-04-25T08:18:51;99583.66;;;15.38;52.90
17230;BME280;8731;50.364;8.958;2023-04-25T08:23:14;99577.56;;;16.03;53.00
17230;BME280;8731;50.364;8.958;2023-04-25T08:27:48;99586.44;;;15.67;53.50
17230;BME280;8731;50.364;8.958;2023-04-25T08:32:14;99599.34;;;15.55;53.08
17230;BME280;8731;50.364;8.958;2023-04-25T08:36:51;99586.22;;;15.77;52.91
17230;BME280;8731;50.364;8.958;2023-04-25T08:41:37;99596.59;;;16.07;52.96
17230;BME280;8731;50.364;8.958;2023-04-25T08:46:01;99597.41;;;16.34;51.86
17230;BME280;8731;50.364;8.958;2023-04-25T08:50:34;99585.38;;;16.33;50.17
17230;BME280;8731;50.364;8.958;2023-04-25T08:54:58;99605.97;;;15.39;51.18
17230;BME280;8731;50.364;8.958;2023-04-25T08:59:24;99599.44;;;17.26;49.88
17230;BME280;8731;50.364;8.958;2023-04-25T09:03:47;99601.81;;;17.53;48.35
17230;BME280;8731;50.364;8.958;2023-04-25T09:08:13;99600.28;;;17.56;47.35
17230;BME280;8731;50.364;8.958;2023-04-25T09:12:36;99603.69;;;17.26;46.04
17230;BME280;8731;50.364;8.958;2023-04-25T09:17:03;99615.63;;;17.69;46.97
17230;BME280;8731;50.364;8.958;2023-04-25T09:21:36;99618.41;;;17.58;47.89
17230;BME280;8731;50.364;8.958;2023-04-25T09:26:00;99612.69;;;17.63;46.67
17230;BME280;8731;50.364;8.958;2023-04-25T09:30:28;99626.56;;;17.96;47.71
17230;BME280;8731;50.364;8.958;2023-04-25T09:35:03;99648.06;;;16.92;47.33
17230;BME280;8731;50.364;8.958;2023-04-25T09:39:32;99643.72;;;16.91;46.75
17230;BME280;8731;50.364;8.958;2023-04-25T09:44:05;99650.28;;;16.58;46.64
17230;BME280;8731;50.364;8.958;2023-04-25T09:48:31;99667.31;;;16.15;48.63
17230;BME280;8731;50.364;8.958;2023-04-25T09:53:04;99663.69;;;15.98;48.84
17230;BME280;8731;50.364;8.958;2023-04-25T09:57:48;99671.69;;;16.03;47.45
17230;BME280;8731;50.364;8.958;2023-04-25T10:02:20;99685.50;;;16.18;49.26
17230;BME280;8731;50.364;8.958;2023-04-25T10:06:49;99687.56;;;15.57;48.68
17230;BME280;8731;50.364;8.958;2023-04-25T10:11:14;99685.72;;;15.03;46.30
17230;BME280;8731;50.364;8.958;2023-04-25T10:15:37;99684.50;;;16.16;47.24
17230;BME280;8731;50.364;8.958;2023-04-25T10:20:02;99682.56;;;16.12;46.05
17230;BME280;8731;50.364;8.958;2023-04-25T10:24:28;99697.50;;;16.73;46.66
17230;BME280;8731;50.364;8.958;2023-04-25T10:28:58;99698.16;;;16.15;46.39
17230;BME280;8731;50.364;8.958;2023-04-25T10:33:29;99703.66;;;15.55;46.64
17230;BME280;8731;50.364;8.958;2023-04-25T10:37:59;99706.66;;;16.14;47.06
17230;BME280;8731;50.364;8.958;2023-04-25T10:42:24;99718.41;;;15.71;45.73
17230;BME280;8731;50.364;8.958;2023-04-25T10:46:47;99717.69;;;15.47;46.76
17230;BME280;8731;50.364;8.958;2023-04-25T10:51:11;99713.63;;;15.50;48.59
17230;BME280;8731;50.364;8.958;2023-04-25T10:55:50;99716.25;;;15.90;46.44
17230;BME280;8731;50.364;8.958;2023-04-25T11:00:15;99712.16;;;16.33;45.78
17230;BME280;8731;50.364;8.958;2023-04-25T11:04:40;99715.94;;;15.99;44.31
17230;BME280;8731;50.364;8.958;2023-04-25T11:09:10;99719.94;;;15.04;46.33
17230;BME280;8731;50.364;8.958;2023-04-25T11:13:35;99720.41;;;15.36;46.99
17230;BME280;8731;50.364;8.958;2023-04-25T11:17:58;99714.06;;;15.70;46.29
17230;BME280;8731;50.364;8.958;2023-04-25T11:22:21;99717.03;;;15.62;45.88
17230;BME280;8731;50.364;8.958;2023-04-25T11:26:46;99715.28;;;15.61;46.58
17230;BME280;8731;50.364;8.958;2023-04-25T11:31:11;99718.03;;;15.26;46.02
17230;BME280;8731;50.364;8.958;2023-04-25T11:35:33;99716.16;;;15.37;45.45
17230;BME280;8731;50.364;8.958;2023-04-25T11:39:56;99723.75;;;15.35;45.74
17230;BME280;8731;50.364;8.958;2023-04-25T11:44:19;99725.63;;;15.25;45.65
17230;BME280;8731;50.364;8.958;2023-04-25T11:48:43;99736.59;;;14.72;45.84
17230;BME280;8731;50.364;8.958;2023-04-25T11:53:05;99737.06;;;14.92;45.84
17230;BME280;8731;50.364;8.958;2023-04-25T11:57:30;99742.47;;;14.47;46.05
17230;BME280;8731;50.364;8.958;2023-04-25T12:01:53;99746.97;;;14.02;45.62
17230;BME280;8731;50.364;8.958;2023-04-25T12:06:17;99753.75;;;14.73;47.27
17230;BME280;8731;50.364;8.958;2023-04-25T12:10:40;99758.53;;;14.21;47.04
17230;BME280;8731;50.364;8.958;2023-04-25T12:15:12;99764.00;;;14.62;47.01
17230;BME280;8731;50.364;8.958;2023-04-25T12:19:37;99760.47;;;14.36;47.34
17230;BME280;8731;50.364;8.958;2023-04-25T12:24:22;99769.88;;;13.89;48.02
17230;BME280;8731;50.364;8.958;2023-04-25T12:28:46;99768.38;;;14.39;47.50
17230;BME280;8731;50.364;8.958;2023-04-25T12:33:08;99766.53;;;14.13;47.73
17230;BME280;8731;50.364;8.958;2023-04-25T12:37:30;99774.13;;;14.00;46.47
17230;BME280;8731;50.364;8.958;2023-04-25T12:41:54;99761.94;;;14.56;46.41
17230;BME280;8731;50.364;8.958;2023-04-25T12:46:16;99756.03;;;14.82;47.19
17230;BME280;8731;50.364;8.958;2023-04-25T12:50:39;99757.06;;;14.24;45.74
17230;BME280;8731;50.364;8.958;2023-04-25T12:55:01;99758.78;;;14.60;45.69
17230;BME280;8731;50.364;8.958;2023-04-25T12:59:25;99759.25;;;15.16;45.86
17230;BME280;8731;50.364;8.958;2023-04-25T13:03:48;99762.41;;;15.25;45.41
17230;BME280;8731;50.364;8.958;2023-04-25T13:08:11;99757.38;;;15.27;45.81
17230;BME280;8731;50.364;8.958;2023-04-25T13:12:33;99765.97;;;15.27;45.82
17230;BME280;8731;50.364;8.958;2023-04-25T13:16:56;99777.56;;;14.48;45.82
17230;BME280;8731;50.364;8.958;2023-04-25T13:21:19;99778.44;;;14.85;46.98
17230;BME280;8731;50.364;8.958;2023-04-25T13:25:41;99779.53;;;14.88;45.86
17230;BME280;8731;50.364;8.958;2023-04-25T13:30:04;99785.03;;;15.06;46.24
17230;BME280;8731;50.364;8.958;2023-04-25T13:34:29;99783.22;;;14.92;46.01
17230;BME280;8731;50.364;8.958;2023-04-25T13:38:51;99783.75;;;15.13;46.23
17230;BME280;8731;50.364;8.958;2023-04-25T13:43:14;99787.84;;;14.61;45.66
17230;BME280;8731;50.364;8.958;2023-04-25T13:47:36;99795.44;;;14.36;45.39
17230;BME280;8731;50.364;8.958;2023-04-25T13:52:00;99783.06;;;14.65;45.29
17230;BME280;8731;50.364;8.958;2023-04-25T13:56:22;99789.06;;;15.02;46.12
17230;BME280;8731;50.364;8.958;2023-04-25T14:00:45;99784.00;;;15.16;45.11
17230;BME280;8731;50.364;8.958;2023-04-25T14:05:07;99792.34;;;14.52;43.95
17230;BME280;8731;50.364;8.958;2023-04-25T14:09:31;99790.19;;;14.69;44.61
17230;BME280;8731;50.364;8.958;2023-04-25T14:13:54;99792.13;;;14.85;43.38
17230;BME280;8731;50.364;8.958;2023-04-25T14:18:17;99795.81;;;14.05;43.97
17230;BME280;8731;50.364;8.958;2023-04-25T14:22:39;99792.25;;;14.87;44.78
17230;BME280;8731;50.364;8.958;2023-04-25T14:27:05;99806.78;;;14.74;43.98
17230;BME280;8731;50.364;8.958;2023-04-25T14:31:27;99807.88;;;14.78;43.99
17230;BME280;8731;50.364;8.958;2023-04-25T14:35:49;99812.75;;;14.87;45.27
17230;BME280;8731;50.364;8.958;2023-04-25T14:40:12;99812.44;;;15.07;45.47
17230;BME280;8731;50.364;8.958;2023-04-25T14:44:37;99817.13;;;14.76;45.86
17230;BME280;8731;50.364;8.958;2023-04-25T14:49:01;99829.06;;;14.17;45.38
17230;BME280;8731;50.364;8.958;2023-04-25T14:53:23;99830.63;;;14.38;45.96
17230;BME280;8731;50.364;8.958;2023-04-25T14:57:45;99833.22;;;14.50;46.21
17230;BME280;8731;50.364;8.958;2023-04-25T15:02:09;99827.41;;;14.41;45.09
17230;BME280;8731;50.364;8.958;2023-04-25T15:06:33;99834.56;;;14.22;44.19
17230;BME280;8731;50.364;8.958;2023-04-25T15:10:55;99837.56;;;14.04;43.78
17230;BME280;8731;50.364;8.958;2023-04-25T15:15:18;99836.47;;;14.48;44.31
17230;BME280;8731;50.364;8.958;2023-04-25T15:19:41;99837.34;;;14.25;43.46
17230;BME280;8731;50.364;8.958;2023-04-25T15:24:04;99849.13;;;14.11;44.07
17230;BME280;8731;50.364;8.958;2023-04-25T15:28:26;99850.91;;;14.00;42.89
17230;BME280;8731;50.364;8.958;2023-04-25T15:32:49;99858.03;;;14.04;44.29
17230;BME280;8731;50.364;8.958;2023-04-25T15:37:12;99851.91;;;14.37;45.69
17230;BME280;8731;50.364;8.958;2023-04-25T15:41:36;99862.00;;;13.89;45.19
17230;BME280;8731;50.364;8.958;2023-04-25T15:45:58;99862.16;;;13.57;45.60
17230;BME280;8731;50.364;8.958;2023-04-25T15:50:21;99860.44;;;13.91;45.29
17230;BME280;8731;50.364;8.958;2023-04-25T15:54:45;99857.56;;;13.75;45.37
17230;BME280;8731;50.364;8.958;2023-04-25T15:59:07;99860.06;;;13.63;45.35
17230;BME280;8731;50.364;8.958;2023-04-25T16:03:29;99858.78;;;13.80;45.04
17230;BME280;8731;50.364;8.958;2023-04-25T16:07:52;99856.25;;;14.03;45.14
17230;BME280;8731;50.364;8.958;2023-04-25T16:12:16;99861.78;;;13.86;45.23
17230;BME280;8731;50.364;8.958;2023-04-25T16:16:39;99846.94;;;13.59;45.86
17230;BME280;8731;50.364;8.958;2023-04-25T16:21:03;99854.66;;;13.37;44.94
17230;BME280;8731;50.364;8.958;2023-04-25T16:25:26;99853.94;;;13.49;45.80
17230;BME280;8731;50.364;8.958;2023-04-25T16:29:49;99860.28;;;13.55;46.87
17230;BME280;8731;50.364;8.958;2023-04-25T16:34:13;99856.59;;;13.07;45.11
17230;BME280;8731;50.364;8.958;2023-04-25T16:38:35;99862.88;;;13.01;46.30
17230;BME280;8731;50.364;8.958;2023-04-25T16:42:58;99861.75;;;13.29;46.34
17230;BME280;8731;50.364;8.958;2023-04-25T16:47:22;99871.75;;;12.94;47.38
17230;BME280;8731;50.364;8.958;2023-04-25T16:51:45;99874.00;;;11.95;47.93
17230;BME280;8731;50.364;8.958;2023-04-25T16:56:07;99872.06;;;12.03;47.52
17230;BME280;8731;50.364;8.958;2023-04-25T17:00:30;99874.09;;;12.59;47.47
17230;BME280;8731;50.364;8.958;2023-04-25T17:04:53;99886.56;;;12.66;47.75
17230;BME280;8731;50.364;8.958;2023-04-25T17:09:16;99889.47;;;12.81;47.59
17230;BME280;8731;50.364;8.958;2023-04-25T17:13:38;99892.38;;;12.43;48.60
17230;BME280;8731;50.364;8.958;2023-04-25T17:18:03;99902.41;;;11.99;49.07
17230;BME280;8731;50.364;8.958;2023-04-25T17:22:26;99901.22;;;12.37;48.35
17230;BME280;8731;50.364;8.958;2023-04-25T17:26:48;99907.38;;;12.18;48.77
17230;BME280;8731;50.364;8.958;2023-04-25T17:31:11;99911.88;;;12.53;49.84
17230;BME280;8731;50.364;8.958;2023-04-25T17:35:33;99917.47;;;12.69;49.49
17230;BME280;8731;50.364;8.958;2023-04-25T17:39:57;99918.94;;;12.55;50.86
17230;BME280;8731;50.364;8.958;2023-04-25T17:44:19;99922.63;;;12.49;50.07
17230;BME280;8731;50.364;8.958;2023-04-25T17:48:41;99925.94;;;12.58;49.79
17230;BME280;8731;50.364;8.958;2023-04-25T17:53:04;99929.88;;;12.65;48.82
17230;BME280;8731;50.364;8.958;2023-04-25T17:57:27;99936.03;;;12.56;48.98
17230;BME280;8731;50.364;8.958;2023-04-25T18:01:50;99932.75;;;12.37;49.11
17230;BME280;8731;50.364;8.958;2023-04-25T18:06:13;99947.06;;;12.05;49.79
17230;BME280;8731;50.364;8.958;2023-04-25T18:10:35;99959.84;;;11.94;49.45
17230;BME280;8731;50.364;8.958;2023-04-25T18:14:59;99963.03;;;12.02;47.46
17230;BME280;8731;50.364;8.958;2023-04-25T18:19:25;99966.16;;;11.69;47.82
17230;BME280;8731;50.364;8.958;2023-04-25T18:23:47;99975.94;;;11.44;47.70
17230;BME280;8731;50.364;8.958;2023-04-25T18:28:09;99984.81;;;11.29;46.69
17230;BME280;8731;50.364;8.958;2023-04-25T18:32:33;99986.25;;;11.46;47.86
17230;BME280;8731;50.364;8.958;2023-04-25T18:36:55;99994.50;;;11.33;48.48
17230;BME280;8731;50.364;8.958;2023-04-25T18:41:18;100002.56;;;11.08;48.50
17230;BME280;8731;50.364;8.958;2023-04-25T18:45:40;100004.81;;;10.95;48.45
17230;BME280;8731;50.364;8.958;2023-04-25T18:50:06;100009.78;;;10.56;49.79
17230;BME280;8731;50.364;8.958;2023-04-25T18:54:28;100017.06;;;10.62;50.42
17230;BME280;8731;50.364;8.958;2023-04-25T18:58:51;100027.47;;;10.73;50.98
17230;BME280;8731;50.364;8.958;2023-04-25T19:03:14;100035.94;;;10.45;52.02
17230;BME280;8731;50.364;8.958;2023-04-25T19:07:38;100033.09;;;10.61;51.45
17230;BME280;8731;50.364;8.958;2023-04-25T19:12:00;100053.31;;;10.40;53.05
17230;BME280;8731;50.364;8.958;2023-04-25T19:16:23;100057.78;;;10.24;52.91
17230;BME280;8731;50.364;8.958;2023-04-25T19:20:46;100062.59;;;10.40;53.03
17230;BME280;8731;50.364;8.958;2023-04-25T19:25:10;100060.38;;;10.43;52.71
17230;BME280;8731;50.364;8.958;2023-04-25T19:29:32;100067.28;;;10.35;53.77
17230;BME280;8731;50.364;8.958;2023-04-25T19:33:55;100070.03;;;10.28;53.99
17230;BME280;8731;50.364;8.958;2023-04-25T19:38:18;100074.09;;;10.26;54.18
17230;BME280;8731;50.364;8.958;2023-04-25T19:42:42;100077.84;;;10.21;54.48
17230;BME280;8731;50.364;8.958;2023-04-25T19:47:05;100073.19;;;10.17;54.24
17230;BME280;8731;50.364;8.958;2023-04-25T19:51:28;100087.78;;;10.01;55.00
17230;BME280;8731;50.364;8.958;2023-04-25T19:55:50;100095.91;;;9.97;55.76
17230;BME280;8731;50.364;8.958;2023-04-25T20:00:15;100093.41;;;9.79;56.10
17230;BME280;8731;50.364;8.958;2023-04-25T20:04:39;100092.25;;;9.76;56.32
17230;BME280;8731;50.364;8.958;2023-04-25T20:09:01;100092.56;;;9.70;55.61
17230;BME280;8731;50.364;8.958;2023-04-25T20:13:25;100094.78;;;9.67;55.89
17230;BME280;8731;50.364;8.958;2023-04-25T20:17:49;100092.44;;;9.60;55.58
17230;BME280;8731;50.364;8.958;2023-04-25T20:22:11;100106.66;;;9.41;56.18
17230;BME280;8731;50.364;8.958;2023-04-25T20:26:33;100102.34;;;9.22;56.28
17230;BME280;8731;50.364;8.958;2023-04-25T20:30:56;100104.19;;;9.23;56.96
17230;BME280;8731;50.364;8.958;2023-04-25T20:35:20;100104.91;;;9.22;56.58
17230;BME280;8731;50.364;8.958;2023-04-25T20:39:43;100121.47;;;8.58;59.66
17230;BME280;8731;50.364;8.958;2023-04-25T20:44:05;100115.34;;;8.74;59.53
17230;BME280;8731;50.364;8.958;2023-04-25T20:48:28;100124.34;;;8.96;58.11
17230;BME280;8731;50.364;8.958;2023-04-25T20:52:52;100126.28;;;8.81;58.53
17230;BME280;8731;50.364;8.958;2023-04-25T20:57:15;100125.97;;;8.61;58.00
17230;BME280;8731;50.364;8.958;2023-04-25T21:01:37;100126.81;;;8.44;60.09
17230;BME280;8731;50.364;8.958;2023-04-25T21:05:59;100131.16;;;7.79;64.42
17230;BME280;8731;50.364;8.958;2023-04-25T21:10:23;100126.66;;;8.43;60.77
17230;BME280;8731;50.364;8.958;2023-04-25T21:14:46;100132.94;;;8.46;60.81
17230;BME280;8731;50.364;8.958;2023-04-25T21:19:08;100134.75;;;8.23;61.40
17230;BME280;8731;50.364;8.958;2023-04-25T21:23:30;100141.03;;;8.18;61.58
17230;BME280;8731;50.364;8.958;2023-04-25T21:27:54;100157.56;;;7.81;63.27
17230;BME280;8731;50.364;8.958;2023-04-25T21:32:18;100157.59;;;7.01;68.15
17230;BME280;8731;50.364;8.958;2023-04-25T21:36:41;100151.28;;;7.53;65.81
17230;BME280;8731;50.364;8.958;2023-04-25T21:41:03;100151.66;;;7.65;64.85
17230;BME280;8731;50.364;8.958;2023-04-25T21:45:27;100149.16;;;7.74;64.16
17230;BME280;8731;50.364;8.958;2023-04-25T21:49:50;100154.06;;;7.48;65.53
17230;BME280;8731;50.364;8.958;2023-04-25T21:54:12;100157.34;;;7.47;66.06
17230;BME280;8731;50.364;8.958;2023-04-25T21:58:34;100151.03;;;7.34;66.73
17230;BME280;8731;50.364;8.958;2023-04-25T22:02:58;100146.19;;;7.29;66.38
17230;BME280;8731;50.364;8.958;2023-04-25T22:07:20;100158.31;;;7.16;67.46
17230;BME280;8731;50.364;8.958;2023-04-25T22:11:43;100159.53;;;7.19;67.31
17230;BME280;8731;50.364;8.958;2023-04-25T22:16:05;100154.47;;;7.19;66.81
17230;BME280;8731;50.364;8.958;2023-04-25T22:20:32;100165.59;;;7.13;66.84
17230;BME280;8731;50.364;8.958;2023-04-25T22:24:55;100165.59;;;7.13;66.64
17230;BME280;8731;50.364;8.958;2023-04-25T22:29:18;100171.22;;;7.10;66.68
17230;BME280;8731;50.364;8.958;2023-04-25T22:33:40;100179.06;;;7.04;67.35
17230;BME280;8731;50.364;8.958;2023-04-25T22:38:07;100188.44;;;6.74;69.45
17230;BME280;8731;50.364;8.958;2023-04-25T22:42:35;100199.56;;;6.67;69.45
17230;BME280;8731;50.364;8.958;2023-04-25T22:46:59;100203.75;;;6.21;72.40
17230;BME280;8731;50.364;8.958;2023-04-25T22:51:21;100211.59;;;6.15;72.50
17230;BME280;8731;50.364;8.958;2023-04-25T22:55:53;100211.81;;;6.49;70.37
17230;BME280;8731;50.364;8.958;2023-04-25T23:00:17;100212.97;;;6.43;69.73
17230;BME280;8731;50.364;8.958;2023-04-25T23:04:40;100224.19;;;6.38;70.16
17230;BME280;8731;50.364;8.958;2023-04-25T23:09:03;100223.34;;;6.31;69.94
17230;BME280;8731;50.364;8.958;2023-04-25T23:13:29;100231.59;;;5.84;72.27
17230;BME280;8731;50.364;8.958;2023-04-25T23:17:52;100233.88;;;5.67;74.73
17230;BME280;8731;50.364;8.958;2023-04-25T23:22:14;100237.16;;;5.59;74.27
17230;BME280;8731;50.364;8.958;2023-04-25T23:26:37;100242.31;;;5.44;75.86
17230;BME280;8731;50.364;8.958;2023-04-25T23:31:06;100237.69;;;5.26;76.07
17230;BME280;8731;50.364;8.958;2023-04-25T23:35:34;100245.28;;;5.12;76.64
17230;BME280;8731;50.364;8.958;2023-04-25T23:39:56;100240.84;;;5.39;75.30
17230;BME280;8731;50.364;8.958;2023-04-25T23:44:18;100245.78;;;5.31;75.40